Time;durP1;ratioP1;P1;durP2;ratioP2;P2;SDS_P1;SDS_P2;PMS_P1;PMS_P2;Temp;Humidity;BMP_temperature;BMP_pressure;BME280_temperature;BME280_humidity;BME280_pressure;Samples;Min_cycle;Max_cycle;Signal;HPM_P1;HPM_P2
2023/05/02 00:00:31;;;;;;;;;;;;;;;11.4;70.82715;102133.2;;;;-73
2023/05/02 00:05:31;;;;;;;;;;;;;;;11.37;70.55566;102148;;;;-69
2023/05/02 00:10:31;;;;;;;;;;;;;;;11.34;70.90723;102147.6;;;;-72
2023/05/02 00:15:31;;;;;;;;;;;;;;;11.31;71.1123;102144.2;;;;-69
2023/05/02 00:20:31;;;;;;;;;;;;;;;11.27;70.57129;102142.8;;;;-69
2023/05/02 00:25:31;;;;;;;;;;;;;;;11.24;71.35742;102151.5;;;;-69
2023/05/02 00:28:41;;;;;;;7.9;2.2;;;;;;;;;;;;;-69
2023/05/02 00:30:33;;;;;;;;;;;;;;;11.18;71.00293;102162;;;;-73
2023/05/02 00:35:31;;;;;;;;;;;;;;;11.16;70.88672;102168.6;;;;-69
2023/05/02 00:40:31;;;;;;;;;;;;;;;11.1;70.87793;102182;;;;-70
2023/05/02 00:45:32;;;;;;;;;;;;;;;11.04;70.86914;102195.7;;;;-69
2023/05/02 00:50:33;;;;;;;;;;;;;;;11.01;70.9541;102198;;;;-68
2023/05/02 00:55:31;;;;;;;;;;;;;;;10.95;70.22168;102199.4;;;;-68
2023/05/02 00:58:44;;;;;;;4.6;1.6;;;;;;;;;;;;;-69
2023/05/02 01:00:34;;;;;;;;;;;;;;;10.91;70.13672;102206.9;;;;-71
2023/05/02 01:05:36;;;;;;;;;;;;;;;10.85;70.20508;102188.8;;;;-68
2023/05/02 01:10:34;;;;;;;;;;;;;;;10.8;70.21875;102187.3;;;;-69
2023/05/02 01:15:31;;;;;;;;;;;;;;;10.74;69.70898;102189.9;;;;-69
2023/05/02 01:20:32;;;;;;;;;;;;;;;10.68;69.81152;102188.8;;;;-69
2023/05/02 01:25:35;;;;;;;;;;;;;;;10.64;69.70508;102205.4;;;;-69
2023/05/02 01:28:54;;;;;;;5.4;1.2;;;;;;;;;;;;;-70
2023/05/02 01:30:36;;;;;;;;;;;;;;;10.61;69.62207;102211.8;;;;-70
2023/05/02 01:35:32;;;;;;;;;;;;;;;10.57;69.45117;102211.2;;;;-68
2023/05/02 01:40:32;;;;;;;;;;;;;;;10.55;69.03516;102213.1;;;;-70
2023/05/02 01:45:31;;;;;;;;;;;;;;;10.49;69.16113;102220.2;;;;-68
2023/05/02 01:50:31;;;;;;;;;;;;;;;10.47;69.37988;102231.5;;;;-68
2023/05/02 01:55:31;;;;;;;;;;;;;;;10.44;69.67383;102240.3;;;;-69
2023/05/02 01:58:47;;;;;;;5.8;1.2;;;;;;;;;;;;;-70
2023/05/02 02:00:32;;;;;;;;;;;;;;;10.42;69.14746;102243.6;;;;-70
2023/05/02 02:05:31;;;;;;;;;;;;;;;10.37;69.20703;102255.2;;;;-69
2023/05/02 02:10:33;;;;;;;;;;;;;;;10.35;69.18164;102273.5;;;;-69
2023/05/02 02:15:33;;;;;;;;;;;;;;;10.35;69.44824;102281.4;;;;-69
2023/05/02 02:20:32;;;;;;;;;;;;;;;10.32;69.1543;102280.7;;;;-68
2023/05/02 02:25:31;;;;;;;;;;;;;;;10.29;69.36035;102283.2;;;;-69
2023/05/02 02:28:48;;;;;;;4.3;1.1;;;;;;;;;;;;;-69
2023/05/02 02:30:31;;;;;;;;;;;;;;;10.2;69.11328;102284.2;;;;-72
2023/05/02 02:35:34;;;;;;;;;;;;;;;10.16;69.05176;102287.1;;;;-69
2023/05/02 02:40:32;;;;;;;;;;;;;;;10.12;68.93555;102292.3;;;;-70
2023/05/02 02:45:37;;;;;;;;;;;;;;;10.12;68.82324;102298.3;;;;-69
2023/05/02 02:50:34;;;;;;;;;;;;;;;10.08;68.73926;102306.7;;;;-68
2023/05/02 02:55:34;;;;;;;;;;;;;;;10.01;68.85156;102309.3;;;;-68
2023/05/02 02:58:54;;;;;;;2.6;0.8;;;;;;;;;;;;;-69
2023/05/02 03:00:32;;;;;;;;;;;;;;;9.97;69.09961;102311.9;;;;-72
2023/05/02 03:05:32;;;;;;;;;;;;;;;9.94;68.98242;102317.8;;;;-69
2023/05/02 03:10:32;;;;;;;;;;;;;;;9.91;68.72363;102323.8;;;;-70
2023/05/02 03:15:45;;;;;;;;;;;;;;;9.89;68.88672;102334.9;;;;-70
2023/05/02 03:20:31;;;;;;;;;;;;;;;9.89;68.66504;102342.3;;;;-67
2023/05/02 03:25:31;;;;;;;;;;;;;;;9.85;68.52637;102352.2;;;;-69
2023/05/02 03:28:50;;;;;;;3;1.3;;;;;;;;;;;;;-68
2023/05/02 03:30:34;;;;;;;;;;;;;;;9.84;68.9668;102363.9;;;;-72
2023/05/02 03:35:31;;;;;;;;;;;;;;;9.83;68.70117;102372.1;;;;-69
2023/05/02 03:40:31;;;;;;;;;;;;;;;9.82;68.52051;102372.9;;;;-70
2023/05/02 03:45:31;;;;;;;;;;;;;;;9.8;68.80762;102376.3;;;;-68
2023/05/02 03:50:31;;;;;;;;;;;;;;;9.83;68.93359;102381.9;;;;-69
2023/05/02 03:55:34;;;;;;;;;;;;;;;9.76;68.83301;102388.6;;;;-69
2023/05/02 03:58:51;;;;;;;6.7;1.5;;;;;;;;;;;;;-69
2023/05/02 04:00:31;;;;;;;;;;;;;;;9.75;68.74316;102391.4;;;;-69
2023/05/02 04:05:31;;;;;;;;;;;;;;;9.69;68.81055;102395.8;;;;-70
2023/05/02 04:10:31;;;;;;;;;;;;;;;9.65;68.69434;102401.6;;;;-69
2023/05/02 04:15:31;;;;;;;;;;;;;;;9.65;68.65039;102410.8;;;;-69
2023/05/02 04:20:32;;;;;;;;;;;;;;;9.63;68.6582;102417;;;;-69
2023/05/02 04:25:31;;;;;;;;;;;;;;;9.63;68.46875;102424.4;;;;-69
2023/05/02 04:28:52;;;;;;;8.3;1.5;;;;;;;;;;;;;-70
2023/05/02 04:30:31;;;;;;;;;;;;;;;9.58;68.57227;102428.4;;;;-69
2023/05/02 04:35:31;;;;;;;;;;;;;;;9.57;68.58203;102434.9;;;;-70
2023/05/02 04:40:31;;;;;;;;;;;;;;;9.55;68.52246;102443.8;;;;-69
2023/05/02 04:45:33;;;;;;;;;;;;;;;9.53;68.20996;102452.1;;;;-69
2023/05/02 04:50:33;;;;;;;;;;;;;;;9.53;68.45313;102462.5;;;;-69
2023/05/02 04:55:31;;;;;;;;;;;;;;;9.52;68.19824;102470.8;;;;-68
2023/05/02 04:58:54;;;;;;;7.6;1.5;;;;;;;;;;;;;-69
2023/05/02 05:00:31;;;;;;;;;;;;;;;9.5;68.05078;102472.5;;;;-69
2023/05/02 05:05:31;;;;;;;;;;;;;;;9.54;68.08984;102487.9;;;;-69
2023/05/02 05:10:31;;;;;;;;;;;;;;;9.54;67.96777;102495;;;;-67
2023/05/02 05:15:33;;;;;;;;;;;;;;;9.53;67.93359;102491.1;;;;-68
2023/05/02 05:20:31;;;;;;;;;;;;;;;9.54;67.93457;102497.8;;;;-69
2023/05/02 05:25:32;;;;;;;;;;;;;;;9.56;67.87109;102508;;;;-68
2023/05/02 05:28:54;;;;;;;4.7;1.3;;;;;;;;;;;;;-69
2023/05/02 05:30:31;;;;;;;;;;;;;;;9.55;67.69434;102512.4;;;;-69
2023/05/02 05:35:31;;;;;;;;;;;;;;;9.56;67.78223;102520.4;;;;-67
2023/05/02 05:40:31;;;;;;;;;;;;;;;9.55;67.81543;102529.6;;;;-69
2023/05/02 05:45:31;;;;;;;;;;;;;;;9.56;67.77148;102535.4;;;;-69
2023/05/02 05:50:31;;;;;;;;;;;;;;;9.62;68.08105;102552.8;;;;-69
2023/05/02 05:55:31;;;;;;;;;;;;;;;9.63;67.87109;102554.3;;;;-70
2023/05/02 05:58:56;;;;;;;4.2;1.3;;;;;;;;;;;;;-69
2023/05/02 06:00:31;;;;;;;;;;;;;;;9.7;67.30664;102564.3;;;;-68
2023/05/02 06:05:31;;;;;;;;;;;;;;;9.82;67.37891;102571;;;;-69
2023/05/02 06:10:31;;;;;;;;;;;;;;;9.96;67.10156;102578.9;;;;-69
2023/05/02 06:15:31;;;;;;;;;;;;;;;10.1;66.90039;102590.3;;;;-71
2023/05/02 06:20:31;;;;;;;;;;;;;;;10.4;66.22461;102593;;;;-69
2023/05/02 06:25:32;;;;;;;;;;;;;;;10.55;65.81543;102603.2;;;;-68
2023/05/02 06:29:01;;;;;;;4.8;1.3;;;;;;;;;;;;;-68
2023/05/02 06:30:32;;;;;;;;;;;;;;;10.67;65.55469;102614.2;;;;-69
2023/05/02 06:35:31;;;;;;;;;;;;;;;10.79;65.4043;102616.9;;;;-68
2023/05/02 06:40:35;;;;;;;;;;;;;;;10.87;65.35059;102618.1;;;;-68
2023/05/02 06:45:34;;;;;;;;;;;;;;;10.96;64.9873;102619.2;;;;-70
2023/05/02 06:50:31;;;;;;;;;;;;;;;11.19;64.7998;102635.2;;;;-69
2023/05/02 06:55:31;;;;;;;;;;;;;;;11.44;64.23438;102647.2;;;;-68
2023/05/02 06:58:58;;;;;;;3.9;1.2;;;;;;;;;;;;;-69
2023/05/02 07:00:31;;;;;;;;;;;;;;;11.64;63.42773;102652.7;;;;-69
2023/05/02 07:05:32;;;;;;;;;;;;;;;11.83;62.87402;102656.3;;;;-70
2023/05/02 07:10:31;;;;;;;;;;;;;;;11.99;62.10547;102659.3;;;;-68
2023/05/02 07:15:31;;;;;;;;;;;;;;;12.22;61.5918;102660.6;;;;-68
2023/05/02 07:20:37;;;;;;;;;;;;;;;12.52;61.12012;102671.2;;;;-70
2023/05/02 07:25:31;;;;;;;;;;;;;;;12.93;59.95605;102672.8;;;;-70
2023/05/02 07:29:00;;;;;;;2.4;0.9;;;;;;;;;;;;;-69
2023/05/02 07:30:31;;;;;;;;;;;;;;;13.25;58.97949;102678.7;;;;-69
2023/05/02 07:35:31;;;;;;;;;;;;;;;13.81;57.14844;102684.1;;;;-69
2023/05/02 07:40:31;;;;;;;;;;;;;;;13.99;56.38574;102682.7;;;;-70
2023/05/02 07:45:31;;;;;;;;;;;;;;;14.05;55.9541;102680.5;;;;-69
2023/05/02 07:50:31;;;;;;;;;;;;;;;14.28;56.04102;102681.1;;;;-70
2023/05/02 07:55:32;;;;;;;;;;;;;;;14.67;54.68262;102688;;;;-71
2023/05/02 07:59:02;;;;;;;4.6;1.3;;;;;;;;;;;;;-71
2023/05/02 08:00:31;;;;;;;;;;;;;;;14.59;54.20117;102694.9;;;;-68
2023/05/02 08:05:31;;;;;;;;;;;;;;;14.24;54.49609;102707.4;;;;-70
2023/05/02 08:10:31;;;;;;;;;;;;;;;13.95;54.87402;102704.4;;;;-68
2023/05/02 08:15:31;;;;;;;;;;;;;;;13.77;55.04297;102715.3;;;;-69
2023/05/02 08:20:31;;;;;;;;;;;;;;;13.68;55.27832;102725.6;;;;-70
2023/05/02 08:25:31;;;;;;;;;;;;;;;13.65;55.95996;102731;;;;-71
2023/05/02 08:29:04;;;;;;;3.6;1.3;;;;;;;;;;;;;-68
2023/05/02 08:30:31;;;;;;;;;;;;;;;13.71;55.93457;102729.9;;;;-67
2023/05/02 08:35:31;;;;;;;;;;;;;;;13.93;55.58008;102729.7;;;;-69
2023/05/02 08:40:31;;;;;;;;;;;;;;;14.26;55.31934;102736.6;;;;-68
2023/05/02 08:45:36;;;;;;;;;;;;;;;14.56;54.23047;102742;;;;-68
2023/05/02 08:50:31;;;;;;;;;;;;;;;14.51;53.85449;102748.3;;;;-70
2023/05/02 08:55:32;;;;;;;;;;;;;;;14.5;53.99902;102753.3;;;;-68
2023/05/02 08:59:07;;;;;;;3.1;1.2;;;;;;;;;;;;;-69
2023/05/02 09:00:32;;;;;;;;;;;;;;;14.67;53.81641;102752.8;;;;-70
2023/05/02 09:05:31;;;;;;;;;;;;;;;14.8;53.23633;102764.7;;;;-68
2023/05/02 09:10:31;;;;;;;;;;;;;;;14.98;53.08887;102758.7;;;;-69
2023/05/02 09:15:31;;;;;;;;;;;;;;;15.15;52.31934;102770.1;;;;-68
2023/05/02 09:20:31;;;;;;;;;;;;;;;15.2;52.43848;102768.3;;;;-69
2023/05/02 09:25:39;;;;;;;;;;;;;;;15.27;51.91602;102771.1;;;;-68
2023/05/02 09:29:08;;;;;;;4.2;1.7;;;;;;;;;;;;;-68
2023/05/02 09:30:33;;;;;;;;;;;;;;;15.51;51.76465;102772.6;;;;-71
2023/05/02 09:35:31;;;;;;;;;;;;;;;15.99;51.53809;102778.9;;;;-70
2023/05/02 09:40:31;;;;;;;;;;;;;;;16.22;50.68262;102787.4;;;;-68
2023/05/02 09:45:31;;;;;;;;;;;;;;;16.34;50.13086;102790.3;;;;-70
2023/05/02 09:50:40;;;;;;;;;;;;;;;16.43;49.9834;102794.9;;;;-69
2023/05/02 09:55:31;;;;;;;;;;;;;;;16.77;49.80762;102797.4;;;;-70
2023/05/02 09:59:19;;;;;;;4.3;1.6;;;;;;;;;;;;;-70
2023/05/02 10:00:44;;;;;;;;;;;;;;;17.1;48.68848;102798.7;;;;-68
2023/05/02 10:05:31;;;;;;;;;;;;;;;17.32;48.91504;102800.2;;;;-70
2023/05/02 10:10:31;;;;;;;;;;;;;;;17.4;48.66309;102804.5;;;;-68
2023/05/02 10:15:33;;;;;;;;;;;;;;;17.56;47.9668;102804.1;;;;-68
2023/05/02 10:20:36;;;;;;;;;;;;;;;17.59;47.61719;102814;;;;-69
2023/05/02 10:25:31;;;;;;;;;;;;;;;17.69;47.15137;102815.4;;;;-69
2023/05/02 10:29:13;;;;;;;7;2;;;;;;;;;;;;;-68
2023/05/02 10:30:34;;;;;;;;;;;;;;;17.69;47.52637;102812.3;;;;-70
2023/05/02 10:35:34;;;;;;;;;;;;;;;17.66;47.2959;102821.4;;;;-70
2023/05/02 10:40:31;;;;;;;;;;;;;;;17.81;47.3457;102821.9;;;;-69
2023/05/02 10:45:38;;;;;;;;;;;;;;;17.87;47.39746;102819.1;;;;-68
2023/05/02 10:50:41;;;;;;;;;;;;;;;18.01;45.99121;102821.5;;;;-69
2023/05/02 10:55:31;;;;;;;;;;;;;;;18.19;46.8291;102824.5;;;;-68
2023/05/02 10:59:27;;;;;;;5.7;1.9;;;;;;;;;;;;;-70
2023/05/02 11:00:32;;;;;;;;;;;;;;;18.85;47.35449;102826.1;;;;-71
2023/05/02 11:05:35;;;;;;;;;;;;;;;19.19;46.37695;102825.4;;;;-68
2023/05/02 11:10:31;;;;;;;;;;;;;;;19.12;46.32324;102826.1;;;;-74
2023/05/02 11:15:42;;;;;;;;;;;;;;;19.06;45.82617;102830;;;;-70
2023/05/02 11:20:31;;;;;;;;;;;;;;;19.25;46.86133;102831.7;;;;-68
2023/05/02 11:25:41;;;;;;;;;;;;;;;19.44;46.25391;102837.9;;;;-70
2023/05/02 11:29:31;;;;;;;5.8;2;;;;;;;;;;;;;-69
2023/05/02 11:30:43;;;;;;;;;;;;;;;19.3;46.82129;102832;;;;-70
2023/05/02 11:35:31;;;;;;;;;;;;;;;19.32;46.99414;102832.6;;;;-69
2023/05/02 11:40:31;;;;;;;;;;;;;;;19.83;47.73242;102840.4;;;;-69
2023/05/02 11:45:39;;;;;;;;;;;;;;;20.05;47.23047;102846.8;;;;-70
2023/05/02 11:50:33;;;;;;;;;;;;;;;20.19;47.50781;102854;;;;-69
2023/05/02 11:55:31;;;;;;;;;;;;;;;20.15;47.15039;102857.2;;;;-69
2023/05/02 11:59:22;;;;;;;5.8;1.9;;;;;;;;;;;;;-70
2023/05/02 12:00:33;;;;;;;;;;;;;;;20.04;46.40918;102866.1;;;;-69
2023/05/02 12:05:34;;;;;;;;;;;;;;;20.06;46.66113;102865.3;;;;-70
2023/05/02 12:10:38;;;;;;;;;;;;;;;20.35;45.16016;102872.6;;;;-68
2023/05/02 12:15:31;;;;;;;;;;;;;;;20.23;45.51367;102880.7;;;;-68
2023/05/02 12:20:31;;;;;;;;;;;;;;;20.26;45.94043;102882.8;;;;-70
2023/05/02 12:25:32;;;;;;;;;;;;;;;20.54;45.52344;102881.3;;;;-69
2023/05/02 12:29:25;;;;;;;5;1.8;;;;;;;;;;;;;-69
2023/05/02 12:30:34;;;;;;;;;;;;;;;20.52;46.34375;102878.9;;;;-69
2023/05/02 12:35:31;;;;;;;;;;;;;;;20.86;44.53711;102884.5;;;;-69
2023/05/02 12:40:32;;;;;;;;;;;;;;;20.69;44.49707;102895.7;;;;-68
2023/05/02 12:45:32;;;;;;;;;;;;;;;20.48;44.22461;102896.6;;;;-69
2023/05/02 12:50:41;;;;;;;;;;;;;;;20.4;45.22266;102901.8;;;;-68
2023/05/02 12:55:31;;;;;;;;;;;;;;;20.37;44.75098;102901.2;;;;-69
2023/05/02 12:59:33;;;;;;;4.9;2;;;;;;;;;;;;;-70
2023/05/02 13:00:31;;;;;;;;;;;;;;;20.36;44.56641;102900.8;;;;-70
2023/05/02 13:05:31;;;;;;;;;;;;;;;20.26;44.44141;102899.2;;;;-68
2023/05/02 13:10:31;;;;;;;;;;;;;;;20.17;44.31934;102909.3;;;;-69
2023/05/02 13:15:31;;;;;;;;;;;;;;;20.23;43.9248;102903.6;;;;-70
2023/05/02 13:20:31;;;;;;;;;;;;;;;20.08;43.60156;102914.6;;;;-70
2023/05/02 13:25:32;;;;;;;;;;;;;;;19.97;44.26465;102912.6;;;;-71
2023/05/02 13:29:32;;;;;;;6;1.9;;;;;;;;;;;;;-69
2023/05/02 13:30:31;;;;;;;;;;;;;;;19.9;44.22363;102910.4;;;;-69
2023/05/02 13:35:32;;;;;;;;;;;;;;;19.76;43.78613;102916.2;;;;-69
2023/05/02 13:40:33;;;;;;;;;;;;;;;19.61;45.3584;102929.3;;;;-70
2023/05/02 13:45:31;;;;;;;;;;;;;;;19.54;45.72754;102932.3;;;;-69
2023/05/02 13:50:31;;;;;;;;;;;;;;;19.48;46.45117;102933.4;;;;-70
2023/05/02 13:55:31;;;;;;;;;;;;;;;19.86;46.9375;102932.1;;;;-70
2023/05/02 13:59:37;;;;;;;4.5;1.5;;;;;;;;;;;;;-69
2023/05/02 14:00:32;;;;;;;;;;;;;;;20.47;44.80664;102931.1;;;;-70
2023/05/02 14:05:31;;;;;;;;;;;;;;;20.6;45.04883;102927.9;;;;-69
2023/05/02 14:10:31;;;;;;;;;;;;;;;20.47;44.98926;102935.4;;;;-70
2023/05/02 14:15:31;;;;;;;;;;;;;;;20.2;46.02539;102935.7;;;;-68
2023/05/02 14:20:31;;;;;;;;;;;;;;;20.48;45.66406;102931.6;;;;-69
2023/05/02 14:25:31;;;;;;;;;;;;;;;20.91;43.58008;102936.3;;;;-70
2023/05/02 14:29:39;;;;;;;3.2;1.3;;;;;;;;;;;;;-69
2023/05/02 14:30:31;;;;;;;;;;;;;;;20.5;44.44336;102941.1;;;;-70
2023/05/02 14:35:31;;;;;;;;;;;;;;;20.07;45.21191;102939.3;;;;-71
2023/05/02 14:40:31;;;;;;;;;;;;;;;19.81;45.79004;102936;;;;-69
2023/05/02 14:45:31;;;;;;;;;;;;;;;19.63;46.45605;102938.3;;;;-68
2023/05/02 14:50:31;;;;;;;;;;;;;;;19.45;46.65527;102938.2;;;;-71
2023/05/02 14:55:33;;;;;;;;;;;;;;;19.25;47.26074;102933.7;;;;-70
2023/05/02 14:59:42;;;;;;;2.7;1.3;;;;;;;;;;;;;-70
2023/05/02 15:00:31;;;;;;;;;;;;;;;19.03;45.62988;102935.4;;;;-70
2023/05/02 15:05:31;;;;;;;;;;;;;;;18.86;46.01172;102927.8;;;;-69
2023/05/02 15:10:33;;;;;;;;;;;;;;;18.67;47.97168;102934.7;;;;-70
2023/05/02 15:15:30;;;;;;;;;;;;;;;18.5;46.86328;102931.3;;;;-71
2023/05/02 15:20:31;;;;;;;;;;;;;;;18.26;46.25684;102931.1;;;;-69
2023/05/02 15:25:30;;;;;;;;;;;;;;;18.1;46.71777;102937.7;;;;-69
2023/05/02 15:29:45;;;;;;;3.1;1.3;;;;;;;;;;;;;-71
2023/05/02 15:30:31;;;;;;;;;;;;;;;18.01;46.08203;102948.8;;;;-69
2023/05/02 15:35:31;;;;;;;;;;;;;;;17.91;46.40137;102947.9;;;;-69
2023/05/02 15:40:30;;;;;;;;;;;;;;;17.78;46.41113;102953;;;;-69
2023/05/02 15:45:31;;;;;;;;;;;;;;;17.67;45.73926;102952.4;;;;-70
2023/05/02 15:50:31;;;;;;;;;;;;;;;17.48;46.28906;102957.3;;;;-68
2023/05/02 15:55:32;;;;;;;;;;;;;;;17.34;46.78418;102971.8;;;;-70
2023/05/02 15:59:48;;;;;;;2.4;1;;;;;;;;;;;;;-69
2023/05/02 16:00:31;;;;;;;;;;;;;;;17.12;46.52344;102963.9;;;;-69
2023/05/02 16:05:31;;;;;;;;;;;;;;;16.98;47.50684;102964.6;;;;-68
2023/05/02 16:10:31;;;;;;;;;;;;;;;16.87;47.60938;102973.1;;;;-69
2023/05/02 16:15:30;;;;;;;;;;;;;;;16.74;46.77734;102974.6;;;;-71
2023/05/02 16:20:32;;;;;;;;;;;;;;;16.55;47.87988;102973;;;;-68
2023/05/02 16:25:31;;;;;;;;;;;;;;;16.39;46.76465;102974.9;;;;-69
2023/05/02 16:29:51;;;;;;;3.8;1.1;;;;;;;;;;;;;-69
2023/05/02 16:30:31;;;;;;;;;;;;;;;16.26;47.32715;102976.5;;;;-69
2023/05/02 16:35:31;;;;;;;;;;;;;;;16.14;47.62012;102969.6;;;;-72
2023/05/02 16:40:31;;;;;;;;;;;;;;;16.03;48.26465;102964.5;;;;-69
2023/05/02 16:45:31;;;;;;;;;;;;;;;15.94;48.51465;102966.3;;;;-69
2023/05/02 16:50:31;;;;;;;;;;;;;;;15.86;48.84473;102961.8;;;;-69
2023/05/02 16:55:31;;;;;;;;;;;;;;;15.8;49.06445;102966;;;;-70
2023/05/02 16:59:55;;;;;;;3.3;1.1;;;;;;;;;;;;;-68
2023/05/02 17:00:30;;;;;;;;;;;;;;;15.75;49.02441;102966.2;;;;-70
2023/05/02 17:05:31;;;;;;;;;;;;;;;15.65;48.95605;102973.9;;;;-69
2023/05/02 17:10:30;;;;;;;;;;;;;;;15.56;48.7998;102969.9;;;;-69
2023/05/02 17:15:30;;;;;;;;;;;;;;;15.44;48.78711;102974.6;;;;-71
2023/05/02 17:20:31;;;;;;;;;;;;;;;15.32;49.14551;102978.2;;;;-69
2023/05/02 17:25:30;;;;;;;;;;;;;;;15.22;49.37109;102993.2;;;;-70
2023/05/02 17:29:56;;;;;;;2.9;0.9;;;;;;;;;;;;;-69
2023/05/02 17:30:31;;;;;;;;;;;;;;;15.09;49.08691;102994.9;;;;-69
2023/05/02 17:35:33;;;;;;;;;;;;;;;14.99;49.44824;102991.4;;;;-69
2023/05/02 17:40:34;;;;;;;;;;;;;;;14.88;49.19824;102996.8;;;;-69
2023/05/02 17:45:31;;;;;;;;;;;;;;;14.77;49.42383;102991.2;;;;-68
2023/05/02 17:50:31;;;;;;;;;;;;;;;14.64;49.70117;102989.5;;;;-73
2023/05/02 17:55:31;;;;;;;;;;;;;;;14.49;49.68555;102998.1;;;;-69
2023/05/02 17:59:59;;;;;;;2;0.9;;;;;;;;;;;;;-69
2023/05/02 18:00:33;;;;;;;;;;;;;;;14.32;50.04883;103000.5;;;;-69
2023/05/02 18:05:30;;;;;;;;;;;;;;;14.16;50.2998;103007.2;;;;-69
2023/05/02 18:10:31;;;;;;;;;;;;;;;13.97;50.3584;103007.7;;;;-67
2023/05/02 18:15:30;;;;;;;;;;;;;;;13.81;50.23828;103006.5;;;;-67
2023/05/02 18:20:31;;;;;;;;;;;;;;;13.66;50.27637;103001.2;;;;-69
2023/05/02 18:25:31;;;;;;;;;;;;;;;13.53;50.70117;103003.6;;;;-69
2023/05/02 18:30:02;;;;;;;2.8;0.8;;;;;;;;;;;;;-69
2023/05/02 18:30:30;;;;;;;;;;;;;;;13.37;50.92969;103013;;;;-71
2023/05/02 18:35:31;;;;;;;;;;;;;;;13.23;50.63184;103006.9;;;;-71
2023/05/02 18:40:31;;;;;;;;;;;;;;;13.1;50.9873;103004.5;;;;-70
2023/05/02 18:45:31;;;;;;;;;;;;;;;12.96;50.75781;103005.5;;;;-71
2023/05/02 18:50:31;;;;;;;;;;;;;;;12.83;51.01172;103015.8;;;;-71
2023/05/02 18:55:31;;;;;;;;;;;;;;;12.67;51.09473;103023;;;;-71
2023/05/02 19:00:04;;;;;;;2.3;0.8;;;;;;;;;;;;;-70
2023/05/02 19:00:31;;;;;;;;;;;;;;;12.55;51.38281;103018.8;;;;-71
2023/05/02 19:05:33;;;;;;;;;;;;;;;12.38;51.56445;103017.5;;;;-70
2023/05/02 19:10:31;;;;;;;;;;;;;;;12.21;51.60059;103025;;;;-71
2023/05/02 19:15:31;;;;;;;;;;;;;;;12.07;51.67383;103030.1;;;;-71
2023/05/02 19:20:31;;;;;;;;;;;;;;;11.89;52;103036.1;;;;-71
2023/05/02 19:25:31;;;;;;;;;;;;;;;11.7;51.94336;103039.1;;;;-71
2023/05/02 19:30:08;;;;;;;2.1;0.8;;;;;;;;;;;;;-70
2023/05/02 19:30:31;;;;;;;;;;;;;;;11.56;52.50781;103046.8;;;;-71
2023/05/02 19:35:34;;;;;;;;;;;;;;;11.37;52.57422;103045.5;;;;-72
2023/05/02 19:40:31;;;;;;;;;;;;;;;11.23;52.61328;103056.3;;;;-70
2023/05/02 19:45:31;;;;;;;;;;;;;;;11.06;52.89551;103054.8;;;;-72
2023/05/02 19:50:34;;;;;;;;;;;;;;;10.92;52.94531;103056.1;;;;-73
2023/05/02 19:55:31;;;;;;;;;;;;;;;10.77;53.5293;103058.8;;;;-74
2023/05/02 20:00:08;;;;;;;2.1;1;;;;;;;;;;;;;-71
2023/05/02 20:00:31;;;;;;;;;;;;;;;10.61;53.60938;103066.7;;;;-71
2023/05/02 20:05:30;;;;;;;;;;;;;;;10.46;53.5918;103069;;;;-72
2023/05/02 20:10:31;;;;;;;;;;;;;;;10.3;53.87305;103077.5;;;;-71
2023/05/02 20:15:31;;;;;;;;;;;;;;;10.14;53.84277;103083.8;;;;-71
2023/05/02 20:20:31;;;;;;;;;;;;;;;10.03;54.25195;103087.7;;;;-71
2023/05/02 20:25:30;;;;;;;;;;;;;;;9.86;54.4082;103090.8;;;;-71
2023/05/02 20:30:09;;;;;;;2.3;1;;;;;;;;;;;;;-70
2023/05/02 20:30:31;;;;;;;;;;;;;;;9.73;54.20313;103088.2;;;;-70
2023/05/02 20:35:30;;;;;;;;;;;;;;;9.62;54.34473;103096.7;;;;-71
2023/05/02 20:40:36;;;;;;;;;;;;;;;9.5;54.54199;103095.9;;;;-71
2023/05/02 20:45:32;;;;;;;;;;;;;;;9.36;54.60156;103095.1;;;;-72
2023/05/02 20:50:31;;;;;;;;;;;;;;;9.24;55.1416;103102.3;;;;-72
2023/05/02 20:55:31;;;;;;;;;;;;;;;9.15;55.28516;103098.9;;;;-69
2023/05/02 21:00:12;;;;;;;3.1;1;;;;;;;;;;;;;-70
2023/05/02 21:00:31;;;;;;;;;;;;;;;9.01;55.26758;103093.8;;;;-70
2023/05/02 21:05:31;;;;;;;;;;;;;;;8.91;55.1123;103093.6;;;;-70
2023/05/02 21:10:32;;;;;;;;;;;;;;;8.79;55.47363;103089.8;;;;-71
2023/05/02 21:15:30;;;;;;;;;;;;;;;8.69;55.44922;103085.4;;;;-71
2023/05/02 21:20:30;;;;;;;;;;;;;;;8.59;55.80371;103086.8;;;;-71
2023/05/02 21:25:30;;;;;;;;;;;;;;;8.54;55.5752;103085.4;;;;-71
2023/05/02 21:30:12;;;;;;;1.9;0.8;;;;;;;;;;;;;-71
2023/05/02 21:30:31;;;;;;;;;;;;;;;8.4;55.73438;103089;;;;-72
2023/05/02 21:35:32;;;;;;;;;;;;;;;8.33;56.00293;103089.6;;;;-70
2023/05/02 21:40:32;;;;;;;;;;;;;;;8.22;55.83398;103087;;;;-70
2023/05/02 21:45:31;;;;;;;;;;;;;;;8.1;55.94043;103080.1;;;;-70
2023/05/02 21:50:32;;;;;;;;;;;;;;;8;56.22559;103071.9;;;;-68
2023/05/02 21:55:30;;;;;;;;;;;;;;;7.94;56.37305;103070.3;;;;-71
2023/05/02 22:00:14;;;;;;;2.6;1.1;;;;;;;;;;;;;-70
2023/05/02 22:00:31;;;;;;;;;;;;;;;7.81;56.63379;103062.2;;;;-71
2023/05/02 22:05:31;;;;;;;;;;;;;;;7.76;56.33984;103058;;;;-71
2023/05/02 22:10:31;;;;;;;;;;;;;;;7.67;56.4043;103059.5;;;;-70
2023/05/02 22:15:31;;;;;;;;;;;;;;;7.61;56.55176;103061.2;;;;-70
2023/05/02 22:20:31;;;;;;;;;;;;;;;7.51;56.67188;103060.6;;;;-71
2023/05/02 22:25:34;;;;;;;;;;;;;;;7.42;56.54883;103065;;;;-70
2023/05/02 22:30:14;;;;;;;2.8;1.1;;;;;;;;;;;;;-70
2023/05/02 22:30:31;;;;;;;;;;;;;;;7.33;56.87012;103061.3;;;;-69
2023/05/02 22:35:30;;;;;;;;;;;;;;;7.31;57.16504;103066.5;;;;-70
2023/05/02 22:40:31;;;;;;;;;;;;;;;7.22;57.17578;103071.8;;;;-70
2023/05/02 22:45:30;;;;;;;;;;;;;;;7.19;57.0166;103077.1;;;;-70
2023/05/02 22:50:30;;;;;;;;;;;;;;;7.11;56.8623;103079.4;;;;-71
2023/05/02 22:55:30;;;;;;;;;;;;;;;7.07;57.13281;103077.8;;;;-71
2023/05/02 23:00:15;;;;;;;2;1;;;;;;;;;;;;;-72
2023/05/02 23:00:30;;;;;;;;;;;;;;;7.02;57.45801;103076.9;;;;-71
2023/05/02 23:05:31;;;;;;;;;;;;;;;7;57.66406;103080.8;;;;-70
2023/05/02 23:10:30;;;;;;;;;;;;;;;6.95;57.50488;103077;;;;-69
2023/05/02 23:15:30;;;;;;;;;;;;;;;6.92;57.64355;103077;;;;-73
2023/05/02 23:20:30;;;;;;;;;;;;;;;6.9;57.51953;103075;;;;-70
2023/05/02 23:25:31;;;;;;;;;;;;;;;6.89;57.67285;103073.9;;;;-70
2023/05/02 23:30:15;;;;;;;2.8;1.1;;;;;;;;;;;;;-71
2023/05/02 23:30:32;;;;;;;;;;;;;;;6.9;57.49805;103083.1;;;;-72
2023/05/02 23:35:30;;;;;;;;;;;;;;;6.91;57.46582;103090.9;;;;-71
2023/05/02 23:40:31;;;;;;;;;;;;;;;6.91;57.67578;103095.2;;;;-71
2023/05/02 23:45:30;;;;;;;;;;;;;;;6.95;57.51465;103097.5;;;;-70
2023/05/02 23:50:41;;;;;;;;;;;;;;;7;57.63281;103105.5;;;;-70
2023/05/02 23:55:30;;;;;;;;;;;;;;;7.05;57.57227;103105;;;;-70
